• Join FlightAware (Why Join?)
  • Login
  • US Flag 
01:37PM EDT


 

Airport Tracker/Info


-or-


 

Live Flight TrackerFlight Track Log ✈ N683AE ✈ 30-May-2012 ✈ KDFW - KSHV

Flight Track Log - Related Links

Times and Time Zones

All times are in EDT time to prevent confusion due to time zone crossing. See the N683AE flight status page for this flight to view local times or setup timezone preferences in your user account.

Time Position Orientation Groundspeed Altitude Reporting Facility
EDT Latitude Longitude Course Direction KTS MPH feet Rate Location/Type
03:38PM 32.8430 -97.0297 North  Level FlightAware Approximate
03:39PM 32.8864 -97.0289 115° Southeast 146 168 1,600  Level FAA TRACON SMA TRACON (SMA)
03:44PM 32.7803 -96.7550 79° East 306 352 10,700 1,920 Climbing FAA TRACON SMA TRACON (SMA)
03:44PM 32.7917 -96.6819 80° East 328 377 12,000 1,800 Climbing FAA TRACON SMA TRACON (SMA)
03:45PM 32.8014 -96.6139 71° East 341 392 13,200 1,800 Climbing FAA TRACON SMA TRACON (SMA)
03:46PM 32.8228 -96.5383 67° East 348 400 14,500 1,920 Climbing FAA TRACON SMA TRACON (SMA)
03:46PM 32.8489 -96.4642 65° Northeast 352 405 15,800 1,860 Climbing FAA TRACON SMA TRACON (SMA)
03:47PM 32.8750 -96.3961 66° East 363 418 17,000 2,040 Climbing FAA TRACON SMA TRACON (SMA)
03:48PM 32.9036 -96.3181 68° East 372 428 18,500 2,100 Climbing FAA TRACON SMA TRACON (SMA)
03:48PM 32.9308 -96.2381 66° East 378 435 19,800 1,740 Climbing FAA TRACON SMA TRACON (SMA)
03:49PM 32.9569 -96.1669 64° Northeast 380 437 20,900 960 Climbing FAA TRACON SMA TRACON (SMA)
03:50PM 32.9917 -96.0836 66° East 405 466 21,100 120 Climbing FAA TRACON SMA TRACON (SMA)
03:50PM 33.0258 -95.9931 68° East 435 501 21,100 -60 Level FAA TRACON SMA TRACON (SMA)
03:52PM 33.1022 -95.7667 68° East 429 494 21,000 -60 Descending Fort Worth Center
03:53PM 33.1425 -95.6444 77° East 439 505 21,000 -300 Level Fort Worth Center
03:54PM 33.1697 -95.5050 114° Southeast 434 499 20,500 -900 Descending Fort Worth Center
03:55PM 33.1194 -95.3672 119° Southeast 413 475 19,200 -1,380 Descending Fort Worth Center
03:56PM 33.0608 -95.2397 118° Southeast 421 484 17,800 -1,140 Descending Fort Worth Center
03:57PM 33.0067 -95.1172 117° Southeast 426 490 17,000 -420 Descending Fort Worth Center
03:58PM 32.9542 -94.9947 117° Southeast 416 479 17,000  Level Fort Worth Center
03:59PM 32.8994 -94.8675 116° Southeast 416 479 17,000 -60 Level Fort Worth Center
04:00PM 32.8489 -94.7453 118° Southeast 416 479 16,900 -1,260 Descending Fort Worth Center
04:01PM 32.7897 -94.6136 119° Southeast 394 453 14,400 -2,040 Descending Fort Worth Center
04:02PM 32.7481 -94.5236 116° Southeast 374 430 13,000 -1,080 Descending Fort Worth Center
04:03PM 32.7061 -94.4236 117° Southeast 347 399 12,500 -1,080 Descending Fort Worth Center
04:04PM 32.6661 -94.3286 116° Southeast 346 398 11,000 -1,020 Descending Fort Worth Center
04:05PM 32.6239 -94.2267 118° Southeast 337 388 10,400 -1,200 Descending Fort Worth Center
04:06PM 32.5797 -94.1269 122° Southeast 313 360 8,500 -1,800 Descending Fort Worth Center
04:07PM 32.5400 -94.0522 142° Southeast 308 354 6,800 -1,860 Descending Fort Worth Center
04:08PM 32.4717 -93.9883 141° Southeast 286 329 4,800 -1,800 Descending Fort Worth Center
04:09PM 32.4222 -93.9408 141° Southeast 271 312 3,300 -1,200 Descending Fort Worth Center
04:10PM 32.3686 -93.8889 141° Southeast 241 277 2,400 -900 Descending Fort Worth Center